sensor_id;sensor_type;location;lat;lon;timestamp;temperature;humidity
11609;DHT22;5860;52.018;8.536;2022-11-23T00:01:16;7.60;99.90
11609;DHT22;5860;52.018;8.536;2022-11-23T00:03:45;7.60;99.90
11609;DHT22;5860;52.018;8.536;2022-11-23T00:06:13;7.50;99.90
11609;DHT22;5860;52.018;8.536;2022-11-23T00:08:40;7.50;99.90
11609;DHT22;5860;52.018;8.536;2022-11-23T00:11:07;7.50;99.90
11609;DHT22;5860;52.018;8.536;2022-11-23T00:13:34;7.50;99.90
11609;DHT22;5860;52.018;8.536;2022-11-23T00:16:10;7.50;99.90
11609;DHT22;5860;52.018;8.536;2022-11-23T00:18:38;7.50;99.90
11609;DHT22;5860;52.018;8.536;2022-11-23T00:21:09;7.50;99.90
11609;DHT22;5860;52.018;8.536;2022-11-23T00:23:37;7.50;99.90
11609;DHT22;5860;52.018;8.536;2022-11-23T00:26:04;7.60;99.90
11609;DHT22;5860;52.018;8.536;2022-11-23T00:28:32;7.50;99.90
11609;DHT22;5860;52.018;8.536;2022-11-23T00:31:00;7.50;99.90
11609;DHT22;5860;52.018;8.536;2022-11-23T00:33:27;7.50;99.90
11609;DHT22;5860;52.018;8.536;2022-11-23T00:36:02;7.50;99.90
11609;DHT22;5860;52.018;8.536;2022-11-23T00:38:30;7.50;99.90
11609;DHT22;5860;52.018;8.536;2022-11-23T00:40:58;7.50;99.90
11609;DHT22;5860;52.018;8.536;2022-11-23T00:43:27;7.60;99.90
11609;DHT22;5860;52.018;8.536;2022-11-23T00:46:09;7.60;99.90
11609;DHT22;5860;52.018;8.536;2022-11-23T00:48:38;7.60;99.90
11609;DHT22;5860;52.018;8.536;2022-11-23T00:51:06;7.60;99.90
11609;DHT22;5860;52.018;8.536;2022-11-23T00:53:34;7.60;99.90
11609;DHT22;5860;52.018;8.536;2022-11-23T00:56:01;7.50;99.90
11609;DHT22;5860;52.018;8.536;2022-11-23T00:58:29;7.50;99.90
11609;DHT22;5860;52.018;8.536;2022-11-23T01:01:12;7.50;99.90
11609;DHT22;5860;52.018;8.536;2022-11-23T01:03:46;7.50;99.90
11609;DHT22;5860;52.018;8.536;2022-11-23T01:06:16;7.50;99.90
11609;DHT22;5860;52.018;8.536;2022-11-23T01:08:57;7.50;99.90
11609;DHT22;5860;52.018;8.536;2022-11-23T01:11:27;7.50;99.90
11609;DHT22;5860;52.018;8.536;2022-11-23T01:13:54;7.60;99.90
11609;DHT22;5860;52.018;8.536;2022-11-23T01:16:26;7.60;99.90
11609;DHT22;5860;52.018;8.536;2022-11-23T01:18:59;7.60;99.90
11609;DHT22;5860;52.018;8.536;2022-11-23T01:21:28;7.60;99.90
11609;DHT22;5860;52.018;8.536;2022-11-23T01:23:55;7.60;99.90
11609;DHT22;5860;52.018;8.536;2022-11-23T01:26:22;7.60;99.90
11609;DHT22;5860;52.018;8.536;2022-11-23T01:28:49;7.60;99.90
11609;DHT22;5860;52.018;8.536;2022-11-23T01:31:21;7.60;99.90
11609;DHT22;5860;52.018;8.536;2022-11-23T01:33:56;7.60;99.90
11609;DHT22;5860;52.018;8.536;2022-11-23T01:36:25;7.60;99.90
11609;DHT22;5860;52.018;8.536;2022-11-23T01:38:53;7.70;99.90
11609;DHT22;5860;52.018;8.536;2022-11-23T01:41:24;7.60;99.90
11609;DHT22;5860;52.018;8.536;2022-11-23T01:43:52;7.70;99.90
11609;DHT22;5860;52.018;8.536;2022-11-23T01:46:19;7.60;99.90
11609;DHT22;5860;52.018;8.536;2022-11-23T01:49:02;7.70;99.90
11609;DHT22;5860;52.018;8.536;2022-11-23T01:51:32;7.70;99.90
11609;DHT22;5860;52.018;8.536;2022-11-23T01:54:04;7.70;99.90
11609;DHT22;5860;52.018;8.536;2022-11-23T01:56:36;7.70;99.90
11609;DHT22;5860;52.018;8.536;2022-11-23T01:59:08;7.80;99.90
11609;DHT22;5860;52.018;8.536;2022-11-23T02:01:36;7.70;99.90
11609;DHT22;5860;52.018;8.536;2022-11-23T02:04:06;7.70;99.90
11609;DHT22;5860;52.018;8.536;2022-11-23T02:06:34;7.70;99.90
11609;DHT22;5860;52.018;8.536;2022-11-23T02:09:02;7.80;99.90
11609;DHT22;5860;52.018;8.536;2022-11-23T02:11:29;7.70;99.90
11609;DHT22;5860;52.018;8.536;2022-11-23T02:13:56;7.70;99.90
11609;DHT22;5860;52.018;8.536;2022-11-23T02:16:22;7.70;99.90
11609;DHT22;5860;52.018;8.536;2022-11-23T02:18:50;7.80;99.90
11609;DHT22;5860;52.018;8.536;2022-11-23T02:21:17;7.80;99.90
11609;DHT22;5860;52.018;8.536;2022-11-23T02:24:19;7.80;99.90
11609;DHT22;5860;52.018;8.536;2022-11-23T02:26:49;7.80;99.90
11609;DHT22;5860;52.018;8.536;2022-11-23T02:29:21;7.80;99.90
11609;DHT22;5860;52.018;8.536;2022-11-23T02:31:49;7.80;99.90
11609;DHT22;5860;52.018;8.536;2022-11-23T02:34:16;7.90;99.90
11609;DHT22;5860;52.018;8.536;2022-11-23T02:36:48;7.90;99.90
11609;DHT22;5860;52.018;8.536;2022-11-23T02:39:35;7.90;99.90
11609;DHT22;5860;52.018;8.536;2022-11-23T02:42:04;8.00;99.90
11609;DHT22;5860;52.018;8.536;2022-11-23T02:47:19;8.00;99.90
11609;DHT22;5860;52.018;8.536;2022-11-23T02:49:47;8.00;99.90
11609;DHT22;5860;52.018;8.536;2022-11-23T02:52:15;8.00;99.90
11609;DHT22;5860;52.018;8.536;2022-11-23T02:54:42;8.00;99.90
11609;DHT22;5860;52.018;8.536;2022-11-23T02:57:09;8.00;99.90
11609;DHT22;5860;52.018;8.536;2022-11-23T02:59:36;8.10;99.90
11609;DHT22;5860;52.018;8.536;2022-11-23T03:02:04;8.10;99.90
11609;DHT22;5860;52.018;8.536;2022-11-23T03:04:31;8.10;99.90
11609;DHT22;5860;52.018;8.536;2022-11-23T03:06:58;8.10;99.90
11609;DHT22;5860;52.018;8.536;2022-11-23T03:09:25;8.10;99.90
11609;DHT22;5860;52.018;8.536;2022-11-23T03:11:52;8.10;99.90
11609;DHT22;5860;52.018;8.536;2022-11-23T03:14:20;8.10;99.90
11609;DHT22;5860;52.018;8.536;2022-11-23T03:16:47;8.10;99.90
11609;DHT22;5860;52.018;8.536;2022-11-23T03:19:14;8.10;99.90
11609;DHT22;5860;52.018;8.536;2022-11-23T03:21:41;8.10;99.90
11609;DHT22;5860;52.018;8.536;2022-11-23T03:24:07;8.10;99.90
11609;DHT22;5860;52.018;8.536;2022-11-23T03:26:34;8.10;99.90
11609;DHT22;5860;52.018;8.536;2022-11-23T03:29:01;8.10;99.90
11609;DHT22;5860;52.018;8.536;2022-11-23T03:31:28;8.10;99.90
11609;DHT22;5860;52.018;8.536;2022-11-23T03:33:55;8.10;99.90
11609;DHT22;5860;52.018;8.536;2022-11-23T03:36:22;8.10;99.90
11609;DHT22;5860;52.018;8.536;2022-11-23T03:38:48;8.10;99.90
11609;DHT22;5860;52.018;8.536;2022-11-23T03:41:15;8.10;99.90
11609;DHT22;5860;52.018;8.536;2022-11-23T03:43:42;8.20;99.90
11609;DHT22;5860;52.018;8.536;2022-11-23T03:46:09;8.10;99.90
11609;DHT22;5860;52.018;8.536;2022-11-23T03:48:35;8.10;99.90
11609;DHT22;5860;52.018;8.536;2022-11-23T03:51:02;8.00;99.90
11609;DHT22;5860;52.018;8.536;2022-11-23T03:53:29;8.00;99.90
11609;DHT22;5860;52.018;8.536;2022-11-23T03:55:56;8.00;99.90
11609;DHT22;5860;52.018;8.536;2022-11-23T03:58:23;8.00;99.90
11609;DHT22;5860;52.018;8.536;2022-11-23T04:00:50;8.10;99.90
11609;DHT22;5860;52.018;8.536;2022-11-23T04:03:17;8.00;99.90
11609;DHT22;5860;52.018;8.536;2022-11-23T04:05:44;8.00;99.90
11609;DHT22;5860;52.018;8.536;2022-11-23T04:08:10;8.10;99.90
11609;DHT22;5860;52.018;8.536;2022-11-23T04:10:37;8.00;99.90
11609;DHT22;5860;52.018;8.536;2022-11-23T04:13:04;8.10;99.90
11609;DHT22;5860;52.018;8.536;2022-11-23T04:15:31;8.00;99.90
11609;DHT22;5860;52.018;8.536;2022-11-23T04:17:58;8.00;99.90
11609;DHT22;5860;52.018;8.536;2022-11-23T04:20:25;8.00;99.90
11609;DHT22;5860;52.018;8.536;2022-11-23T04:22:52;8.00;99.90
11609;DHT22;5860;52.018;8.536;2022-11-23T04:25:19;8.00;99.90
11609;DHT22;5860;52.018;8.536;2022-11-23T04:27:46;7.90;99.90
11609;DHT22;5860;52.018;8.536;2022-11-23T04:30:13;8.00;99.90
11609;DHT22;5860;52.018;8.536;2022-11-23T04:32:43;8.00;99.90
11609;DHT22;5860;52.018;8.536;2022-11-23T04:35:10;7.90;99.90
11609;DHT22;5860;52.018;8.536;2022-11-23T04:37:37;8.00;99.90
11609;DHT22;5860;52.018;8.536;2022-11-23T04:40:04;7.90;99.90
11609;DHT22;5860;52.018;8.536;2022-11-23T04:42:31;7.90;99.90
11609;DHT22;5860;52.018;8.536;2022-11-23T04:44:58;7.90;99.90
11609;DHT22;5860;52.018;8.536;2022-11-23T04:47:25;7.80;99.90
11609;DHT22;5860;52.018;8.536;2022-11-23T04:49:52;7.80;99.90
11609;DHT22;5860;52.018;8.536;2022-11-23T04:52:18;7.80;99.90
11609;DHT22;5860;52.018;8.536;2022-11-23T04:54:45;7.80;99.90
11609;DHT22;5860;52.018;8.536;2022-11-23T04:57:12;7.80;99.90
11609;DHT22;5860;52.018;8.536;2022-11-23T04:59:39;7.90;99.90
11609;DHT22;5860;52.018;8.536;2022-11-23T05:02:06;7.90;99.90
11609;DHT22;5860;52.018;8.536;2022-11-23T05:04:33;7.90;99.90
11609;DHT22;5860;52.018;8.536;2022-11-23T05:07:01;7.90;99.90
11609;DHT22;5860;52.018;8.536;2022-11-23T05:09:27;8.00;99.90
11609;DHT22;5860;52.018;8.536;2022-11-23T05:11:54;7.90;99.90
11609;DHT22;5860;52.018;8.536;2022-11-23T05:14:21;7.90;99.90
11609;DHT22;5860;52.018;8.536;2022-11-23T05:16:48;7.90;99.90
11609;DHT22;5860;52.018;8.536;2022-11-23T05:19:14;7.90;99.90
11609;DHT22;5860;52.018;8.536;2022-11-23T05:21:41;7.90;99.90
11609;DHT22;5860;52.018;8.536;2022-11-23T05:24:08;7.90;99.90
11609;DHT22;5860;52.018;8.536;2022-11-23T05:26:35;8.00;99.90
11609;DHT22;5860;52.018;8.536;2022-11-23T05:29:01;7.90;99.90
11609;DHT22;5860;52.018;8.536;2022-11-23T05:31:28;7.90;99.90
11609;DHT22;5860;52.018;8.536;2022-11-23T05:33:55;8.00;99.90
11609;DHT22;5860;52.018;8.536;2022-11-23T05:36:22;8.00;99.90
11609;DHT22;5860;52.018;8.536;2022-11-23T05:38:49;8.00;99.90
11609;DHT22;5860;52.018;8.536;2022-11-23T05:41:17;8.00;99.90
11609;DHT22;5860;52.018;8.536;2022-11-23T05:43:43;8.10;99.90
11609;DHT22;5860;52.018;8.536;2022-11-23T05:46:10;8.10;99.90
11609;DHT22;5860;52.018;8.536;2022-11-23T05:48:37;8.10;99.90
11609;DHT22;5860;52.018;8.536;2022-11-23T05:51:04;8.10;99.90
11609;DHT22;5860;52.018;8.536;2022-11-23T05:53:31;8.20;99.90
11609;DHT22;5860;52.018;8.536;2022-11-23T05:56:01;8.20;99.90
11609;DHT22;5860;52.018;8.536;2022-11-23T05:58:28;8.20;99.90
11609;DHT22;5860;52.018;8.536;2022-11-23T06:00:59;8.20;99.90
11609;DHT22;5860;52.018;8.536;2022-11-23T06:03:26;8.20;99.90
11609;DHT22;5860;52.018;8.536;2022-11-23T06:05:53;8.20;99.90
11609;DHT22;5860;52.018;8.536;2022-11-23T06:08:20;8.10;99.90
11609;DHT22;5860;52.018;8.536;2022-11-23T06:10:47;8.10;99.90
11609;DHT22;5860;52.018;8.536;2022-11-23T06:13:14;8.10;99.90
11609;DHT22;5860;52.018;8.536;2022-11-23T06:15:40;8.10;99.90
11609;DHT22;5860;52.018;8.536;2022-11-23T06:18:08;8.10;99.90
11609;DHT22;5860;52.018;8.536;2022-11-23T06:20:35;8.10;99.90
11609;DHT22;5860;52.018;8.536;2022-11-23T06:23:02;8.10;99.90
11609;DHT22;5860;52.018;8.536;2022-11-23T06:25:29;8.10;99.90
11609;DHT22;5860;52.018;8.536;2022-11-23T06:27:58;8.10;99.90
11609;DHT22;5860;52.018;8.536;2022-11-23T06:30:26;8.10;99.90
11609;DHT22;5860;52.018;8.536;2022-11-23T06:32:53;8.10;99.90
11609;DHT22;5860;52.018;8.536;2022-11-23T06:35:21;8.10;99.90
11609;DHT22;5860;52.018;8.536;2022-11-23T06:37:49;8.10;99.90
11609;DHT22;5860;52.018;8.536;2022-11-23T06:40:16;8.20;99.90
11609;DHT22;5860;52.018;8.536;2022-11-23T06:42:43;8.10;99.90
11609;DHT22;5860;52.018;8.536;2022-11-23T06:45:10;8.10;99.90
11609;DHT22;5860;52.018;8.536;2022-11-23T06:47:37;8.00;99.90
11609;DHT22;5860;52.018;8.536;2022-11-23T06:50:05;8.10;99.90
11609;DHT22;5860;52.018;8.536;2022-11-23T06:52:32;8.00;99.90
11609;DHT22;5860;52.018;8.536;2022-11-23T06:54:58;8.00;99.90
11609;DHT22;5860;52.018;8.536;2022-11-23T06:57:25;8.00;99.90
11609;DHT22;5860;52.018;8.536;2022-11-23T06:59:52;7.90;99.90
11609;DHT22;5860;52.018;8.536;2022-11-23T07:02:19;8.00;99.90
11609;DHT22;5860;52.018;8.536;2022-11-23T07:04:46;8.00;99.90
11609;DHT22;5860;52.018;8.536;2022-11-23T07:07:13;8.00;99.90
11609;DHT22;5860;52.018;8.536;2022-11-23T07:09:39;8.10;99.90
11609;DHT22;5860;52.018;8.536;2022-11-23T07:12:06;8.00;99.90
11609;DHT22;5860;52.018;8.536;2022-11-23T07:14:33;8.10;99.90
11609;DHT22;5860;52.018;8.536;2022-11-23T07:17:00;8.10;99.90
11609;DHT22;5860;52.018;8.536;2022-11-23T07:19:27;8.10;99.90
11609;DHT22;5860;52.018;8.536;2022-11-23T07:21:53;8.20;99.90
11609;DHT22;5860;52.018;8.536;2022-11-23T07:24:20;8.20;99.90
11609;DHT22;5860;52.018;8.536;2022-11-23T07:26:47;8.20;99.90
11609;DHT22;5860;52.018;8.536;2022-11-23T07:29:14;8.20;99.90
11609;DHT22;5860;52.018;8.536;2022-11-23T07:31:41;8.20;99.90
11609;DHT22;5860;52.018;8.536;2022-11-23T07:34:07;8.30;99.90
11609;DHT22;5860;52.018;8.536;2022-11-23T07:36:36;8.20;99.90
11609;DHT22;5860;52.018;8.536;2022-11-23T07:39:04;8.20;99.90
11609;DHT22;5860;52.018;8.536;2022-11-23T07:41:30;8.30;99.90
11609;DHT22;5860;52.018;8.536;2022-11-23T07:43:57;8.10;99.90
11609;DHT22;5860;52.018;8.536;2022-11-23T07:46:24;8.20;99.90
11609;DHT22;5860;52.018;8.536;2022-11-23T07:48:51;8.20;99.90
11609;DHT22;5860;52.018;8.536;2022-11-23T07:51:20;8.30;99.90
11609;DHT22;5860;52.018;8.536;2022-11-23T07:53:46;8.30;99.90
11609;DHT22;5860;52.018;8.536;2022-11-23T07:56:13;8.30;99.90
11609;DHT22;5860;52.018;8.536;2022-11-23T07:58:40;8.30;99.90
11609;DHT22;5860;52.018;8.536;2022-11-23T08:01:07;8.30;99.90
11609;DHT22;5860;52.018;8.536;2022-11-23T08:03:34;8.30;99.90
11609;DHT22;5860;52.018;8.536;2022-11-23T08:06:01;8.30;99.90
11609;DHT22;5860;52.018;8.536;2022-11-23T08:08:28;8.30;99.90
11609;DHT22;5860;52.018;8.536;2022-11-23T08:10:55;8.40;99.90
11609;DHT22;5860;52.018;8.536;2022-11-23T08:13:22;8.50;99.90
11609;DHT22;5860;52.018;8.536;2022-11-23T08:15:49;8.50;99.90
11609;DHT22;5860;52.018;8.536;2022-11-23T08:18:22;8.40;99.90
11609;DHT22;5860;52.018;8.536;2022-11-23T08:20:49;8.50;99.90
11609;DHT22;5860;52.018;8.536;2022-11-23T08:23:17;8.50;99.90
11609;DHT22;5860;52.018;8.536;2022-11-23T08:25:44;8.50;99.90
11609;DHT22;5860;52.018;8.536;2022-11-23T08:28:11;8.50;99.90
11609;DHT22;5860;52.018;8.536;2022-11-23T08:30:38;8.50;99.90
11609;DHT22;5860;52.018;8.536;2022-11-23T08:33:06;8.60;99.90
11609;DHT22;5860;52.018;8.536;2022-11-23T08:35:35;8.80;99.90
11609;DHT22;5860;52.018;8.536;2022-11-23T08:38:04;8.80;99.90
11609;DHT22;5860;52.018;8.536;2022-11-23T08:40:32;8.80;99.90
11609;DHT22;5860;52.018;8.536;2022-11-23T08:42:59;8.90;99.90
11609;DHT22;5860;52.018;8.536;2022-11-23T08:45:26;8.80;99.90
11609;DHT22;5860;52.018;8.536;2022-11-23T08:47:58;9.00;99.90
11609;DHT22;5860;52.018;8.536;2022-11-23T08:50:25;9.00;99.90
11609;DHT22;5860;52.018;8.536;2022-11-23T08:52:56;8.90;99.90
11609;DHT22;5860;52.018;8.536;2022-11-23T08:55:25;8.90;99.90
11609;DHT22;5860;52.018;8.536;2022-11-23T08:57:56;8.90;99.90
11609;DHT22;5860;52.018;8.536;2022-11-23T09:00:24;8.90;99.90
11609;DHT22;5860;52.018;8.536;2022-11-23T09:02:51;9.00;99.90
11609;DHT22;5860;52.018;8.536;2022-11-23T09:05:18;8.90;99.90
11609;DHT22;5860;52.018;8.536;2022-11-23T09:07:45;8.80;99.90
11609;DHT22;5860;52.018;8.536;2022-11-23T09:10:12;8.80;99.90
11609;DHT22;5860;52.018;8.536;2022-11-23T09:12:48;8.90;99.90
11609;DHT22;5860;52.018;8.536;2022-11-23T09:15:15;8.90;99.90
11609;DHT22;5860;52.018;8.536;2022-11-23T09:17:42;9.00;99.90
11609;DHT22;5860;52.018;8.536;2022-11-23T09:20:10;9.20;99.90
11609;DHT22;5860;52.018;8.536;2022-11-23T09:22:37;9.10;99.90
11609;DHT22;5860;52.018;8.536;2022-11-23T09:25:04;9.20;99.90
11609;DHT22;5860;52.018;8.536;2022-11-23T09:27:32;9.30;99.90
11609;DHT22;5860;52.018;8.536;2022-11-23T09:29:59;9.30;99.90
11609;DHT22;5860;52.018;8.536;2022-11-23T09:32:26;9.30;99.90
11609;DHT22;5860;52.018;8.536;2022-11-23T09:34:53;9.30;99.90
11609;DHT22;5860;52.018;8.536;2022-11-23T09:37:20;9.30;99.90
11609;DHT22;5860;52.018;8.536;2022-11-23T09:39:47;9.20;99.90
11609;DHT22;5860;52.018;8.536;2022-11-23T09:45:35;9.20;99.90
11609;DHT22;5860;52.018;8.536;2022-11-23T09:51:16;9.30;99.90
11609;DHT22;5860;52.018;8.536;2022-11-23T09:53:49;9.30;99.90
11609;DHT22;5860;52.018;8.536;2022-11-23T09:56:29;9.40;99.90
11609;DHT22;5860;52.018;8.536;2022-11-23T09:59:00;9.50;99.90
11609;DHT22;5860;52.018;8.536;2022-11-23T10:01:28;9.50;99.90
11609;DHT22;5860;52.018;8.536;2022-11-23T10:03:58;9.60;99.90
11609;DHT22;5860;52.018;8.536;2022-11-23T10:06:28;9.70;99.90
11609;DHT22;5860;52.018;8.536;2022-11-23T10:09:20;9.70;99.90
11609;DHT22;5860;52.018;8.536;2022-11-23T10:23:47;9.80;99.90
11609;DHT22;5860;52.018;8.536;2022-11-23T10:26:18;9.80;99.90
11609;DHT22;5860;52.018;8.536;2022-11-23T10:28:46;9.80;99.90
11609;DHT22;5860;52.018;8.536;2022-11-23T10:31:15;9.80;99.90
11609;DHT22;5860;52.018;8.536;2022-11-23T10:33:53;9.80;99.90
11609;DHT22;5860;52.018;8.536;2022-11-23T10:36:21;9.90;99.90
11609;DHT22;5860;52.018;8.536;2022-11-23T10:38:51;10.10;99.90
11609;DHT22;5860;52.018;8.536;2022-11-23T10:41:19;10.10;99.90
11609;DHT22;5860;52.018;8.536;2022-11-23T10:46:39;10.10;99.90
11609;DHT22;5860;52.018;8.536;2022-11-23T10:49:15;10.10;99.90
11609;DHT22;5860;52.018;8.536;2022-11-23T10:51:57;10.10;99.90
11609;DHT22;5860;52.018;8.536;2022-11-23T10:57:01;10.30;99.90
11609;DHT22;5860;52.018;8.536;2022-11-23T10:59:36;10.40;99.90
11609;DHT22;5860;52.018;8.536;2022-11-23T11:02:27;10.40;99.90
11609;DHT22;5860;52.018;8.536;2022-11-23T11:05:28;10.50;99.90
11609;DHT22;5860;52.018;8.536;2022-11-23T11:08:20;10.60;99.90
11609;DHT22;5860;52.018;8.536;2022-11-23T11:11:03;10.60;99.90
11609;DHT22;5860;52.018;8.536;2022-11-23T11:13:43;10.60;99.90
11609;DHT22;5860;52.018;8.536;2022-11-23T11:16:26;10.50;99.90
11609;DHT22;5860;52.018;8.536;2022-11-23T11:18:56;10.50;99.90
11609;DHT22;5860;52.018;8.536;2022-11-23T11:21:30;10.60;99.90
11609;DHT22;5860;52.018;8.536;2022-11-23T11:24:05;10.70;99.90
11609;DHT22;5860;52.018;8.536;2022-11-23T11:26:50;10.70;99.90
11609;DHT22;5860;52.018;8.536;2022-11-23T11:32:31;10.70;99.90
11609;DHT22;5860;52.018;8.536;2022-11-23T11:35:17;10.70;99.90
11609;DHT22;5860;52.018;8.536;2022-11-23T11:40:54;10.90;99.90
11609;DHT22;5860;52.018;8.536;2022-11-23T11:43:30;10.70;99.90
11609;DHT22;5860;52.018;8.536;2022-11-23T11:46:36;10.70;99.90
11609;DHT22;5860;52.018;8.536;2022-11-23T11:49:22;10.50;99.90
11609;DHT22;5860;52.018;8.536;2022-11-23T11:52:20;10.40;99.90
11609;DHT22;5860;52.018;8.536;2022-11-23T11:54:52;10.40;99.90
11609;DHT22;5860;52.018;8.536;2022-11-23T11:57:22;10.40;99.90
11609;DHT22;5860;52.018;8.536;2022-11-23T11:59:54;10.40;99.90
11609;DHT22;5860;52.018;8.536;2022-11-23T12:02:28;10.40;99.90
11609;DHT22;5860;52.018;8.536;2022-11-23T12:05:24;10.40;99.90
11609;DHT22;5860;52.018;8.536;2022-11-23T12:08:14;10.40;99.90
11609;DHT22;5860;52.018;8.536;2022-11-23T12:10:52;10.30;99.90
11609;DHT22;5860;52.018;8.536;2022-11-23T12:13:22;10.20;99.90
11609;DHT22;5860;52.018;8.536;2022-11-23T12:16:18;10.20;99.90
11609;DHT22;5860;52.018;8.536;2022-11-23T12:19:09;10.20;99.90
11609;DHT22;5860;52.018;8.536;2022-11-23T12:22:05;10.30;99.90
11609;DHT22;5860;52.018;8.536;2022-11-23T12:30:20;10.30;99.90
11609;DHT22;5860;52.018;8.536;2022-11-23T12:35:47;10.30;99.90
11609;DHT22;5860;52.018;8.536;2022-11-23T12:46:54;10.20;99.90
11609;DHT22;5860;52.018;8.536;2022-11-23T12:49:44;10.20;99.90
11609;DHT22;5860;52.018;8.536;2022-11-23T13:00:30;10.20;99.90
11609;DHT22;5860;52.018;8.536;2022-11-23T13:14:57;10.10;99.90
11609;DHT22;5860;52.018;8.536;2022-11-23T13:17:48;10.20;99.90
11609;DHT22;5860;52.018;8.536;2022-11-23T13:20:25;10.20;99.90
11609;DHT22;5860;52.018;8.536;2022-11-23T13:22:56;10.20;99.90
11609;DHT22;5860;52.018;8.536;2022-11-23T13:25:24;10.20;99.90
11609;DHT22;5860;52.018;8.536;2022-11-23T13:35:52;10.00;99.90
11609;DHT22;5860;52.018;8.536;2022-11-23T13:38:28;10.00;99.90
11609;DHT22;5860;52.018;8.536;2022-11-23T13:41:01;10.10;99.90
11609;DHT22;5860;52.018;8.536;2022-11-23T13:43:30;10.10;99.90
11609;DHT22;5860;52.018;8.536;2022-11-23T13:46:34;10.10;99.90
11609;DHT22;5860;52.018;8.536;2022-11-23T13:49:02;10.10;99.90
11609;DHT22;5860;52.018;8.536;2022-11-23T13:51:31;10.00;99.90
11609;DHT22;5860;52.018;8.536;2022-11-23T13:54:01;10.10;99.90
11609;DHT22;5860;52.018;8.536;2022-11-23T13:56:35;10.00;99.90
11609;DHT22;5860;52.018;8.536;2022-11-23T14:04:34;10.00;99.90
11609;DHT22;5860;52.018;8.536;2022-11-23T14:09:42;10.00;99.90
11609;DHT22;5860;52.018;8.536;2022-11-23T14:14:48;9.90;99.90
11609;DHT22;5860;52.018;8.536;2022-11-23T14:17:52;9.80;99.90
11609;DHT22;5860;52.018;8.536;2022-11-23T14:20:42;9.80;99.90
11609;DHT22;5860;52.018;8.536;2022-11-23T14:32:07;9.70;99.90
11609;DHT22;5860;52.018;8.536;2022-11-23T14:40:28;9.40;99.90
11609;DHT22;5860;52.018;8.536;2022-11-23T14:42:56;9.20;99.90
11609;DHT22;5860;52.018;8.536;2022-11-23T14:45:27;9.20;99.90
11609;DHT22;5860;52.018;8.536;2022-11-23T14:47:55;9.10;99.90
11609;DHT22;5860;52.018;8.536;2022-11-23T14:50:25;9.00;99.90
11609;DHT22;5860;52.018;8.536;2022-11-23T14:52:54;9.10;99.90
11609;DHT22;5860;52.018;8.536;2022-11-23T14:55:28;9.10;99.90
11609;DHT22;5860;52.018;8.536;2022-11-23T14:58:01;9.10;99.90
11609;DHT22;5860;52.018;8.536;2022-11-23T15:00:36;9.00;99.90
11609;DHT22;5860;52.018;8.536;2022-11-23T15:03:18;8.90;99.90
11609;DHT22;5860;52.018;8.536;2022-11-23T15:06:09;8.60;99.90
11609;DHT22;5860;52.018;8.536;2022-11-23T15:08:45;8.40;99.90
11609;DHT22;5860;52.018;8.536;2022-11-23T15:11:18;8.50;99.90
11609;DHT22;5860;52.018;8.536;2022-11-23T15:13:51;8.50;99.90
11609;DHT22;5860;52.018;8.536;2022-11-23T15:16:20;8.50;99.90
11609;DHT22;5860;52.018;8.536;2022-11-23T15:18:50;8.40;99.90
11609;DHT22;5860;52.018;8.536;2022-11-23T15:21:23;8.20;99.90
11609;DHT22;5860;52.018;8.536;2022-11-23T15:23:55;8.20;99.90
11609;DHT22;5860;52.018;8.536;2022-11-23T15:26:29;8.10;99.90
11609;DHT22;5860;52.018;8.536;2022-11-23T15:31:55;7.90;99.90
11609;DHT22;5860;52.018;8.536;2022-11-23T15:34:41;8.00;99.90
11609;DHT22;5860;52.018;8.536;2022-11-23T15:37:09;7.90;99.90
11609;DHT22;5860;52.018;8.536;2022-11-23T15:39:37;8.00;99.90
11609;DHT22;5860;52.018;8.536;2022-11-23T15:42:05;8.00;99.90
11609;DHT22;5860;52.018;8.536;2022-11-23T15:44:32;7.90;99.90
11609;DHT22;5860;52.018;8.536;2022-11-23T15:47:02;8.00;99.90
11609;DHT22;5860;52.018;8.536;2022-11-23T15:49:29;8.00;99.90
11609;DHT22;5860;52.018;8.536;2022-11-23T15:52:00;7.70;99.90
11609;DHT22;5860;52.018;8.536;2022-11-23T15:54:33;7.70;99.90
11609;DHT22;5860;52.018;8.536;2022-11-23T15:57:02;7.60;99.90
11609;DHT22;5860;52.018;8.536;2022-11-23T15:59:48;7.60;99.90
11609;DHT22;5860;52.018;8.536;2022-11-23T16:02:21;7.50;99.90
11609;DHT22;5860;52.018;8.536;2022-11-23T16:05:12;7.50;99.90
11609;DHT22;5860;52.018;8.536;2022-11-23T16:07:56;7.60;99.90
11609;DHT22;5860;52.018;8.536;2022-11-23T16:12:56;7.40;99.90
11609;DHT22;5860;52.018;8.536;2022-11-23T16:15:31;7.40;99.90
11609;DHT22;5860;52.018;8.536;2022-11-23T16:17:59;7.40;99.90
11609;DHT22;5860;52.018;8.536;2022-11-23T16:20:27;7.30;99.90
11609;DHT22;5860;52.018;8.536;2022-11-23T16:22:55;7.20;99.90
11609;DHT22;5860;52.018;8.536;2022-11-23T16:28:01;7.20;99.90
11609;DHT22;5860;52.018;8.536;2022-11-23T16:30:40;7.10;99.90
11609;DHT22;5860;52.018;8.536;2022-11-23T16:33:15;7.10;99.90
11609;DHT22;5860;52.018;8.536;2022-11-23T16:35:42;7.00;99.90
11609;DHT22;5860;52.018;8.536;2022-11-23T16:38:09;7.20;99.90
11609;DHT22;5860;52.018;8.536;2022-11-23T16:40:39;7.00;99.90
11609;DHT22;5860;52.018;8.536;2022-11-23T16:43:06;6.90;99.90
11609;DHT22;5860;52.018;8.536;2022-11-23T16:45:33;7.10;99.90
11609;DHT22;5860;52.018;8.536;2022-11-23T16:48:01;6.90;99.90
11609;DHT22;5860;52.018;8.536;2022-11-23T16:50:34;6.90;99.90
11609;DHT22;5860;52.018;8.536;2022-11-23T16:53:12;7.00;99.90
11609;DHT22;5860;52.018;8.536;2022-11-23T16:55:40;7.20;99.90
11609;DHT22;5860;52.018;8.536;2022-11-23T16:58:13;7.20;99.90
11609;DHT22;5860;52.018;8.536;2022-11-23T17:00:41;7.10;99.90
11609;DHT22;5860;52.018;8.536;2022-11-23T17:03:15;7.00;99.90
11609;DHT22;5860;52.018;8.536;2022-11-23T17:05:43;7.10;99.90
11609;DHT22;5860;52.018;8.536;2022-11-23T17:08:10;7.10;99.90
11609;DHT22;5860;52.018;8.536;2022-11-23T17:10:38;6.90;99.90
11609;DHT22;5860;52.018;8.536;2022-11-23T17:13:11;7.00;99.90
11609;DHT22;5860;52.018;8.536;2022-11-23T17:15:38;7.00;99.90
11609;DHT22;5860;52.018;8.536;2022-11-23T17:18:11;7.00;99.90
11609;DHT22;5860;52.018;8.536;2022-11-23T17:20:39;7.20;99.90
11609;DHT22;5860;52.018;8.536;2022-11-23T17:23:07;7.30;99.90
11609;DHT22;5860;52.018;8.536;2022-11-23T17:25:34;7.40;99.90
11609;DHT22;5860;52.018;8.536;2022-11-23T17:28:03;7.40;99.90
11609;DHT22;5860;52.018;8.536;2022-11-23T17:30:30;7.50;99.90
11609;DHT22;5860;52.018;8.536;2022-11-23T17:32:58;7.50;99.90
11609;DHT22;5860;52.018;8.536;2022-11-23T17:35:26;7.50;99.90
11609;DHT22;5860;52.018;8.536;2022-11-23T17:37:53;7.60;99.90
11609;DHT22;5860;52.018;8.536;2022-11-23T17:40:21;7.70;99.90
11609;DHT22;5860;52.018;8.536;2022-11-23T17:42:49;7.70;99.90
11609;DHT22;5860;52.018;8.536;2022-11-23T17:45:15;7.70;99.90
11609;DHT22;5860;52.018;8.536;2022-11-23T17:47:43;7.70;99.90
11609;DHT22;5860;52.018;8.536;2022-11-23T17:50:16;7.90;99.90
11609;DHT22;5860;52.018;8.536;2022-11-23T17:52:45;7.90;99.90
11609;DHT22;5860;52.018;8.536;2022-11-23T17:55:13;7.90;99.90
11609;DHT22;5860;52.018;8.536;2022-11-23T17:57:41;8.00;99.90
11609;DHT22;5860;52.018;8.536;2022-11-23T18:00:27;8.00;99.90
11609;DHT22;5860;52.018;8.536;2022-11-23T18:02:54;8.00;99.90
11609;DHT22;5860;52.018;8.536;2022-11-23T18:05:21;8.00;99.90
11609;DHT22;5860;52.018;8.536;2022-11-23T18:07:49;8.10;99.90
11609;DHT22;5860;52.018;8.536;2022-11-23T18:10:16;8.00;99.90
11609;DHT22;5860;52.018;8.536;2022-11-23T18:12:44;8.00;99.90